sensor_id;sensor_type;location;lat;lon;timestamp;temperature;humidity
48988;DHT22;34799;51.440;-2.534;2024-02-15T00:00:30;13.00;99.90
48988;DHT22;34799;51.440;-2.534;2024-02-15T00:02:58;13.10;99.90
48988;DHT22;34799;51.440;-2.534;2024-02-15T00:05:27;12.90;99.90
48988;DHT22;34799;51.440;-2.534;2024-02-15T00:07:54;13.10;99.90
48988;DHT22;34799;51.440;-2.534;2024-02-15T00:12:52;13.20;99.90
48988;DHT22;34799;51.440;-2.534;2024-02-15T00:15:19;13.10;99.90
48988;DHT22;34799;51.440;-2.534;2024-02-15T00:17:46;12.90;99.90
48988;DHT22;34799;51.440;-2.534;2024-02-15T00:20:15;13.10;99.90
48988;DHT22;34799;51.440;-2.534;2024-02-15T00:22:44;13.30;99.90
48988;DHT22;34799;51.440;-2.534;2024-02-15T00:25:11;12.90;99.90
48988;DHT22;34799;51.440;-2.534;2024-02-15T00:27:40;13.20;99.90
48988;DHT22;34799;51.440;-2.534;2024-02-15T00:30:09;13.00;99.90
48988;DHT22;34799;51.440;-2.534;2024-02-15T00:32:36;13.00;99.90
48988;DHT22;34799;51.440;-2.534;2024-02-15T00:35:05;13.00;99.90
48988;DHT22;34799;51.440;-2.534;2024-02-15T00:37:37;13.40;99.90
48988;DHT22;34799;51.440;-2.534;2024-02-15T00:40:05;13.20;99.90
48988;DHT22;34799;51.440;-2.534;2024-02-15T00:42:32;13.40;99.90
48988;DHT22;34799;51.440;-2.534;2024-02-15T00:45:00;13.20;99.90
48988;DHT22;34799;51.440;-2.534;2024-02-15T00:47:27;13.30;99.90
48988;DHT22;34799;51.440;-2.534;2024-02-15T00:49:55;13.20;99.90
48988;DHT22;34799;51.440;-2.534;2024-02-15T00:52:23;13.10;99.90
48988;DHT22;34799;51.440;-2.534;2024-02-15T00:57:18;13.00;99.90
48988;DHT22;34799;51.440;-2.534;2024-02-15T00:59:45;13.60;99.90
48988;DHT22;34799;51.440;-2.534;2024-02-15T01:04:42;13.50;99.90
48988;DHT22;34799;51.440;-2.534;2024-02-15T01:07:09;13.20;99.90
48988;DHT22;34799;51.440;-2.534;2024-02-15T01:09:36;13.40;99.90
48988;DHT22;34799;51.440;-2.534;2024-02-15T01:12:04;13.60;99.90
48988;DHT22;34799;51.440;-2.534;2024-02-15T01:16:59;13.50;99.90
48988;DHT22;34799;51.440;-2.534;2024-02-15T01:19:27;13.50;99.90
48988;DHT22;34799;51.440;-2.534;2024-02-15T01:21:54;13.20;99.90
48988;DHT22;34799;51.440;-2.534;2024-02-15T01:24:22;13.30;99.90
48988;DHT22;34799;51.440;-2.534;2024-02-15T01:26:52;13.70;99.90
48988;DHT22;34799;51.440;-2.534;2024-02-15T01:29:21;13.20;99.90
48988;DHT22;34799;51.440;-2.534;2024-02-15T01:31:48;13.40;99.90
48988;DHT22;34799;51.440;-2.534;2024-02-15T01:34:16;13.30;99.90
48988;DHT22;34799;51.440;-2.534;2024-02-15T01:36:44;13.30;99.90
48988;DHT22;34799;51.440;-2.534;2024-02-15T01:39:11;13.10;99.90
48988;DHT22;34799;51.440;-2.534;2024-02-15T01:41:39;13.40;99.90
48988;DHT22;34799;51.440;-2.534;2024-02-15T01:46:34;13.50;99.90
48988;DHT22;34799;51.440;-2.534;2024-02-15T01:49:01;13.50;99.90
48988;DHT22;34799;51.440;-2.534;2024-02-15T01:51:29;13.10;99.90
48988;DHT22;34799;51.440;-2.534;2024-02-15T01:53:57;13.10;99.90
48988;DHT22;34799;51.440;-2.534;2024-02-15T01:56:24;13.20;99.90
48988;DHT22;34799;51.440;-2.534;2024-02-15T02:01:22;13.40;99.90
48988;DHT22;34799;51.440;-2.534;2024-02-15T02:06:17;13.50;99.90
48988;DHT22;34799;51.440;-2.534;2024-02-15T02:08:44;13.50;99.90
48988;DHT22;34799;51.440;-2.534;2024-02-15T02:11:13;13.10;99.90
48988;DHT22;34799;51.440;-2.534;2024-02-15T02:13:40;13.20;99.90
48988;DHT22;34799;51.440;-2.534;2024-02-15T02:16:41;13.00;99.90
48988;DHT22;34799;51.440;-2.534;2024-02-15T02:19:09;13.40;99.90
48988;DHT22;34799;51.440;-2.534;2024-02-15T02:21:37;13.30;99.90
48988;DHT22;34799;51.440;-2.534;2024-02-15T02:24:14;13.10;99.90
48988;DHT22;34799;51.440;-2.534;2024-02-15T02:26:46;13.40;99.90
48988;DHT22;34799;51.440;-2.534;2024-02-15T02:29:16;13.10;99.90
48988;DHT22;34799;51.440;-2.534;2024-02-15T02:36:44;13.30;99.90
48988;DHT22;34799;51.440;-2.534;2024-02-15T02:39:14;13.60;99.90
48988;DHT22;34799;51.440;-2.534;2024-02-15T02:41:41;13.40;99.90
48988;DHT22;34799;51.440;-2.534;2024-02-15T02:44:10;13.40;99.90
48988;DHT22;34799;51.440;-2.534;2024-02-15T02:46:38;13.30;99.90
48988;DHT22;34799;51.440;-2.534;2024-02-15T02:49:05;13.10;99.90
48988;DHT22;34799;51.440;-2.534;2024-02-15T02:51:32;13.60;99.90
48988;DHT22;34799;51.440;-2.534;2024-02-15T02:53:59;13.10;99.90
48988;DHT22;34799;51.440;-2.534;2024-02-15T02:56:28;13.20;99.90
48988;DHT22;34799;51.440;-2.534;2024-02-15T02:58:55;13.20;99.90
48988;DHT22;34799;51.440;-2.534;2024-02-15T03:01:23;13.50;99.90
48988;DHT22;34799;51.440;-2.534;2024-02-15T03:03:53;13.40;99.90
48988;DHT22;34799;51.440;-2.534;2024-02-15T03:06:25;13.00;99.90
48988;DHT22;34799;51.440;-2.534;2024-02-15T03:08:53;13.10;99.90
48988;DHT22;34799;51.440;-2.534;2024-02-15T03:11:24;13.60;99.90
48988;DHT22;34799;51.440;-2.534;2024-02-15T03:13:52;13.40;99.90
48988;DHT22;34799;51.440;-2.534;2024-02-15T03:16:23;13.20;99.90
48988;DHT22;34799;51.440;-2.534;2024-02-15T03:18:52;13.40;99.90
48988;DHT22;34799;51.440;-2.534;2024-02-15T03:23:48;13.60;99.90
48988;DHT22;34799;51.440;-2.534;2024-02-15T03:26:15;13.20;99.90
48988;DHT22;34799;51.440;-2.534;2024-02-15T03:31:11;13.90;99.90
48988;DHT22;34799;51.440;-2.534;2024-02-15T03:33:39;13.60;99.90
48988;DHT22;34799;51.440;-2.534;2024-02-15T03:36:08;13.50;99.90
48988;DHT22;34799;51.440;-2.534;2024-02-15T03:38:38;13.40;99.90
48988;DHT22;34799;51.440;-2.534;2024-02-15T03:41:05;13.20;99.90
48988;DHT22;34799;51.440;-2.534;2024-02-15T03:43:32;13.70;99.90
48988;DHT22;34799;51.440;-2.534;2024-02-15T03:46:01;13.50;99.90
48988;DHT22;34799;51.440;-2.534;2024-02-15T03:48:28;14.20;99.90
48988;DHT22;34799;51.440;-2.534;2024-02-15T03:50:56;13.50;99.90
48988;DHT22;34799;51.440;-2.534;2024-02-15T03:53:25;13.70;99.90
48988;DHT22;34799;51.440;-2.534;2024-02-15T03:55:53;13.50;99.90
48988;DHT22;34799;51.440;-2.534;2024-02-15T03:58:20;13.80;99.90
48988;DHT22;34799;51.440;-2.534;2024-02-15T04:00:48;13.60;99.90
48988;DHT22;34799;51.440;-2.534;2024-02-15T04:03:15;13.70;99.90
48988;DHT22;34799;51.440;-2.534;2024-02-15T04:05:42;13.50;99.90
48988;DHT22;34799;51.440;-2.534;2024-02-15T04:08:09;13.70;99.90
48988;DHT22;34799;51.440;-2.534;2024-02-15T04:10:37;13.50;99.90
48988;DHT22;34799;51.440;-2.534;2024-02-15T04:13:05;13.50;99.90
48988;DHT22;34799;51.440;-2.534;2024-02-15T04:15:32;10.60;99.90
48988;DHT22;34799;51.440;-2.534;2024-02-15T04:18:01;13.70;99.90
48988;DHT22;34799;51.440;-2.534;2024-02-15T04:22:56;13.40;99.90
48988;DHT22;34799;51.440;-2.534;2024-02-15T04:25:24;13.60;99.90
48988;DHT22;34799;51.440;-2.534;2024-02-15T04:27:54;13.30;99.90
48988;DHT22;34799;51.440;-2.534;2024-02-15T04:30:22;13.60;99.90
48988;DHT22;34799;51.440;-2.534;2024-02-15T04:32:51;13.50;99.90
48988;DHT22;34799;51.440;-2.534;2024-02-15T04:35:20;13.60;99.90
48988;DHT22;34799;51.440;-2.534;2024-02-15T04:37:49;13.70;99.90
48988;DHT22;34799;51.440;-2.534;2024-02-15T04:40:19;13.50;99.90
48988;DHT22;34799;51.440;-2.534;2024-02-15T04:42:46;13.70;99.90
48988;DHT22;34799;51.440;-2.534;2024-02-15T04:45:15;13.50;99.90
48988;DHT22;34799;51.440;-2.534;2024-02-15T04:47:54;13.60;99.90
48988;DHT22;34799;51.440;-2.534;2024-02-15T04:50:24;13.40;99.90
48988;DHT22;34799;51.440;-2.534;2024-02-15T04:52:53;13.70;99.90
48988;DHT22;34799;51.440;-2.534;2024-02-15T04:55:20;13.60;99.90
48988;DHT22;34799;51.440;-2.534;2024-02-15T04:57:50;13.50;99.90
48988;DHT22;34799;51.440;-2.534;2024-02-15T05:00:23;13.80;99.90
48988;DHT22;34799;51.440;-2.534;2024-02-15T05:02:53;13.70;99.90
48988;DHT22;34799;51.440;-2.534;2024-02-15T05:05:21;13.80;99.90
48988;DHT22;34799;51.440;-2.534;2024-02-15T05:07:49;13.80;99.90
48988;DHT22;34799;51.440;-2.534;2024-02-15T05:10:18;13.70;99.90
48988;DHT22;34799;51.440;-2.534;2024-02-15T05:12:45;13.60;99.90
48988;DHT22;34799;51.440;-2.534;2024-02-15T05:15:15;13.70;99.90
48988;DHT22;34799;51.440;-2.534;2024-02-15T05:17:44;14.00;99.90
48988;DHT22;34799;51.440;-2.534;2024-02-15T05:20:12;14.00;99.90
48988;DHT22;34799;51.440;-2.534;2024-02-15T05:22:40;13.70;99.90
48988;DHT22;34799;51.440;-2.534;2024-02-15T05:25:12;13.90;99.90
48988;DHT22;34799;51.440;-2.534;2024-02-15T05:27:39;13.70;99.90
48988;DHT22;34799;51.440;-2.534;2024-02-15T05:30:08;13.90;99.90
48988;DHT22;34799;51.440;-2.534;2024-02-15T05:32:35;14.10;99.90
48988;DHT22;34799;51.440;-2.534;2024-02-15T05:35:10;14.10;99.90
48988;DHT22;34799;51.440;-2.534;2024-02-15T05:37:38;14.00;99.90
48988;DHT22;34799;51.440;-2.534;2024-02-15T05:40:06;13.80;99.90
48988;DHT22;34799;51.440;-2.534;2024-02-15T05:42:35;14.20;99.90
48988;DHT22;34799;51.440;-2.534;2024-02-15T05:47:53;13.90;99.90
48988;DHT22;34799;51.440;-2.534;2024-02-15T05:50:20;14.20;99.90
48988;DHT22;34799;51.440;-2.534;2024-02-15T05:55:17;13.90;99.90
48988;DHT22;34799;51.440;-2.534;2024-02-15T05:57:46;13.80;99.90
48988;DHT22;34799;51.440;-2.534;2024-02-15T06:00:14;14.10;99.90
48988;DHT22;34799;51.440;-2.534;2024-02-15T06:05:10;14.40;99.90
48988;DHT22;34799;51.440;-2.534;2024-02-15T06:07:38;14.00;99.90
48988;DHT22;34799;51.440;-2.534;2024-02-15T06:10:07;14.10;99.90
48988;DHT22;34799;51.440;-2.534;2024-02-15T06:12:35;13.90;99.90
48988;DHT22;34799;51.440;-2.534;2024-02-15T06:15:06;13.90;99.90
48988;DHT22;34799;51.440;-2.534;2024-02-15T06:17:42;14.20;99.90
48988;DHT22;34799;51.440;-2.534;2024-02-15T06:20:13;14.00;99.90
48988;DHT22;34799;51.440;-2.534;2024-02-15T06:22:41;13.80;99.90
48988;DHT22;34799;51.440;-2.534;2024-02-15T06:25:10;14.30;99.90
48988;DHT22;34799;51.440;-2.534;2024-02-15T06:27:37;14.00;99.90
48988;DHT22;34799;51.440;-2.534;2024-02-15T06:30:09;13.90;99.90
48988;DHT22;34799;51.440;-2.534;2024-02-15T06:32:57;13.90;99.90
48988;DHT22;34799;51.440;-2.534;2024-02-15T06:35:44;13.80;99.90
48988;DHT22;34799;51.440;-2.534;2024-02-15T06:43:46;13.80;99.90
48988;DHT22;34799;51.440;-2.534;2024-02-15T06:46:14;13.80;99.90
48988;DHT22;34799;51.440;-2.534;2024-02-15T06:48:43;13.90;99.90
48988;DHT22;34799;51.440;-2.534;2024-02-15T06:51:14;13.60;99.90
48988;DHT22;34799;51.440;-2.534;2024-02-15T06:53:42;13.70;99.90
48988;DHT22;34799;51.440;-2.534;2024-02-15T06:56:11;13.40;99.90
48988;DHT22;34799;51.440;-2.534;2024-02-15T06:58:38;13.70;99.90
48988;DHT22;34799;51.440;-2.534;2024-02-15T07:03:36;13.70;99.90
48988;DHT22;34799;51.440;-2.534;2024-02-15T07:06:03;13.50;99.90
48988;DHT22;34799;51.440;-2.534;2024-02-15T07:08:31;13.70;99.90
48988;DHT22;34799;51.440;-2.534;2024-02-15T07:10:59;13.50;99.90
48988;DHT22;34799;51.440;-2.534;2024-02-15T07:13:26;13.50;99.90
48988;DHT22;34799;51.440;-2.534;2024-02-15T07:15:54;13.80;99.90
48988;DHT22;34799;51.440;-2.534;2024-02-15T07:20:52;13.90;99.90
48988;DHT22;34799;51.440;-2.534;2024-02-15T07:23:19;13.10;99.90
48988;DHT22;34799;51.440;-2.534;2024-02-15T07:28:15;13.30;99.90
48988;DHT22;34799;51.440;-2.534;2024-02-15T07:30:42;13.70;99.90
48988;DHT22;34799;51.440;-2.534;2024-02-15T07:33:10;13.60;99.90
48988;DHT22;34799;51.440;-2.534;2024-02-15T07:35:38;13.40;99.90
48988;DHT22;34799;51.440;-2.534;2024-02-15T07:38:05;13.40;99.90
48988;DHT22;34799;51.440;-2.534;2024-02-15T07:40:32;13.30;99.90
48988;DHT22;34799;51.440;-2.534;2024-02-15T07:43:00;13.50;99.90
48988;DHT22;34799;51.440;-2.534;2024-02-15T07:45:28;13.50;99.90
48988;DHT22;34799;51.440;-2.534;2024-02-15T07:47:56;13.50;99.90
48988;DHT22;34799;51.440;-2.534;2024-02-15T07:50:23;13.30;99.90
48988;DHT22;34799;51.440;-2.534;2024-02-15T07:52:51;13.70;99.90
48988;DHT22;34799;51.440;-2.534;2024-02-15T07:55:18;13.10;99.90
48988;DHT22;34799;51.440;-2.534;2024-02-15T07:57:46;13.00;99.90
48988;DHT22;34799;51.440;-2.534;2024-02-15T08:00:16;13.40;99.90
48988;DHT22;34799;51.440;-2.534;2024-02-15T08:02:44;13.20;99.90
48988;DHT22;34799;51.440;-2.534;2024-02-15T08:05:12;12.90;99.90
48988;DHT22;34799;51.440;-2.534;2024-02-15T08:07:43;13.20;99.90
48988;DHT22;34799;51.440;-2.534;2024-02-15T08:10:14;13.30;99.90
48988;DHT22;34799;51.440;-2.534;2024-02-15T08:12:45;13.40;99.90
48988;DHT22;34799;51.440;-2.534;2024-02-15T08:15:13;13.40;99.90
48988;DHT22;34799;51.440;-2.534;2024-02-15T08:17:42;13.00;99.90
48988;DHT22;34799;51.440;-2.534;2024-02-15T08:20:13;13.30;99.90
48988;DHT22;34799;51.440;-2.534;2024-02-15T08:25:12;13.10;99.90
48988;DHT22;34799;51.440;-2.534;2024-02-15T08:27:44;13.20;99.90
48988;DHT22;34799;51.440;-2.534;2024-02-15T08:30:13;13.30;99.90
48988;DHT22;34799;51.440;-2.534;2024-02-15T08:32:41;13.00;99.90
48988;DHT22;34799;51.440;-2.534;2024-02-15T08:35:11;13.00;99.90
48988;DHT22;34799;51.440;-2.534;2024-02-15T08:37:39;13.00;99.90
48988;DHT22;34799;51.440;-2.534;2024-02-15T08:40:11;13.20;99.90
48988;DHT22;34799;51.440;-2.534;2024-02-15T08:42:42;13.50;99.90
48988;DHT22;34799;51.440;-2.534;2024-02-15T08:45:10;13.30;99.90
48988;DHT22;34799;51.440;-2.534;2024-02-15T08:47:42;13.20;99.90
48988;DHT22;34799;51.440;-2.534;2024-02-15T08:50:11;13.30;99.90
48988;DHT22;34799;51.440;-2.534;2024-02-15T08:52:39;13.00;99.90
48988;DHT22;34799;51.440;-2.534;2024-02-15T08:55:10;13.20;99.90
48988;DHT22;34799;51.440;-2.534;2024-02-15T08:57:37;13.00;99.90
48988;DHT22;34799;51.440;-2.534;2024-02-15T09:00:08;13.40;99.90
48988;DHT22;34799;51.440;-2.534;2024-02-15T09:02:45;13.40;99.90
48988;DHT22;34799;51.440;-2.534;2024-02-15T09:05:13;13.40;99.90
48988;DHT22;34799;51.440;-2.534;2024-02-15T09:07:42;13.30;99.90
48988;DHT22;34799;51.440;-2.534;2024-02-15T09:10:10;13.30;99.90
48988;DHT22;34799;51.440;-2.534;2024-02-15T09:12:40;13.60;99.90
48988;DHT22;34799;51.440;-2.534;2024-02-15T09:15:09;13.50;99.90
48988;DHT22;34799;51.440;-2.534;2024-02-15T09:17:38;13.40;99.90
48988;DHT22;34799;51.440;-2.534;2024-02-15T09:20:08;13.40;99.90
48988;DHT22;34799;51.440;-2.534;2024-02-15T09:22:56;13.40;99.90
48988;DHT22;34799;51.440;-2.534;2024-02-15T09:25:24;13.30;99.90
48988;DHT22;34799;51.440;-2.534;2024-02-15T09:27:51;13.50;99.90
48988;DHT22;34799;51.440;-2.534;2024-02-15T09:30:20;13.50;99.90
48988;DHT22;34799;51.440;-2.534;2024-02-15T09:35:16;13.40;99.90
48988;DHT22;34799;51.440;-2.534;2024-02-15T09:37:48;13.40;99.90
48988;DHT22;34799;51.440;-2.534;2024-02-15T09:40:21;13.90;99.90
48988;DHT22;34799;51.440;-2.534;2024-02-15T09:45:15;13.40;99.90
48988;DHT22;34799;51.440;-2.534;2024-02-15T09:47:44;13.50;99.90
48988;DHT22;34799;51.440;-2.534;2024-02-15T09:50:14;13.50;99.90
48988;DHT22;34799;51.440;-2.534;2024-02-15T09:52:49;14.00;99.90
48988;DHT22;34799;51.440;-2.534;2024-02-15T09:55:18;13.90;99.90
48988;DHT22;34799;51.440;-2.534;2024-02-15T09:57:46;13.40;99.90
48988;DHT22;34799;51.440;-2.534;2024-02-15T10:02:43;13.30;99.90
48988;DHT22;34799;51.440;-2.534;2024-02-15T10:05:13;13.60;99.90
48988;DHT22;34799;51.440;-2.534;2024-02-15T10:07:41;13.30;99.90
48988;DHT22;34799;51.440;-2.534;2024-02-15T10:10:24;13.50;99.90
48988;DHT22;34799;51.440;-2.534;2024-02-15T10:12:53;13.70;99.90
48988;DHT22;34799;51.440;-2.534;2024-02-15T10:15:38;13.50;99.90
48988;DHT22;34799;51.440;-2.534;2024-02-15T10:18:09;13.40;99.90
48988;DHT22;34799;51.440;-2.534;2024-02-15T10:20:38;13.50;99.90
48988;DHT22;34799;51.440;-2.534;2024-02-15T10:23:15;13.50;99.90
48988;DHT22;34799;51.440;-2.534;2024-02-15T10:25:44;13.30;99.90
48988;DHT22;34799;51.440;-2.534;2024-02-15T10:28:12;13.40;99.90
48988;DHT22;34799;51.440;-2.534;2024-02-15T10:30:43;14.20;99.90
48988;DHT22;34799;51.440;-2.534;2024-02-15T10:33:28;13.80;99.90
48988;DHT22;34799;51.440;-2.534;2024-02-15T10:36:16;13.70;99.90
48988;DHT22;34799;51.440;-2.534;2024-02-15T10:38:46;13.90;99.90
48988;DHT22;34799;51.440;-2.534;2024-02-15T10:41:14;13.70;99.90
48988;DHT22;34799;51.440;-2.534;2024-02-15T10:43:45;13.70;99.90
48988;DHT22;34799;51.440;-2.534;2024-02-15T10:48:41;14.00;99.90
48988;DHT22;34799;51.440;-2.534;2024-02-15T10:51:13;13.80;99.90
48988;DHT22;34799;51.440;-2.534;2024-02-15T10:53:48;13.90;99.90
48988;DHT22;34799;51.440;-2.534;2024-02-15T10:56:26;14.00;99.90
48988;DHT22;34799;51.440;-2.534;2024-02-15T10:59:03;13.80;99.90
48988;DHT22;34799;51.440;-2.534;2024-02-15T11:01:36;14.40;99.90
48988;DHT22;34799;51.440;-2.534;2024-02-15T11:04:08;14.00;99.90
48988;DHT22;34799;51.440;-2.534;2024-02-15T11:06:39;14.10;99.90
48988;DHT22;34799;51.440;-2.534;2024-02-15T11:09:11;14.10;99.90
48988;DHT22;34799;51.440;-2.534;2024-02-15T11:11:39;14.20;99.90
48988;DHT22;34799;51.440;-2.534;2024-02-15T11:16:51;14.30;99.90
48988;DHT22;34799;51.440;-2.534;2024-02-15T11:22:12;14.50;99.90
48988;DHT22;34799;51.440;-2.534;2024-02-15T11:24:52;14.80;99.90
48988;DHT22;34799;51.440;-2.534;2024-02-15T11:27:30;14.60;99.90
48988;DHT22;34799;51.440;-2.534;2024-02-15T11:30:00;14.70;99.90
48988;DHT22;34799;51.440;-2.534;2024-02-15T11:32:49;14.70;99.90
48988;DHT22;34799;51.440;-2.534;2024-02-15T11:35:24;14.90;99.90
48988;DHT22;34799;51.440;-2.534;2024-02-15T11:37:56;14.90;99.90
48988;DHT22;34799;51.440;-2.534;2024-02-15T11:45:38;15.20;99.90
48988;DHT22;34799;51.440;-2.534;2024-02-15T11:48:10;15.10;99.90
48988;DHT22;34799;51.440;-2.534;2024-02-15T11:50:39;15.40;99.90
48988;DHT22;34799;51.440;-2.534;2024-02-15T11:53:09;15.50;99.90
48988;DHT22;34799;51.440;-2.534;2024-02-15T11:55:38;15.60;99.90
48988;DHT22;34799;51.440;-2.534;2024-02-15T11:58:07;15.70;99.90
48988;DHT22;34799;51.440;-2.534;2024-02-15T12:00:36;15.90;99.90
48988;DHT22;34799;51.440;-2.534;2024-02-15T12:03:24;15.90;99.90
48988;DHT22;34799;51.440;-2.534;2024-02-15T12:06:17;15.80;99.90
48988;DHT22;34799;51.440;-2.534;2024-02-15T12:09:03;15.80;99.90
48988;DHT22;34799;51.440;-2.534;2024-02-15T12:11:57;15.60;99.90
48988;DHT22;34799;51.440;-2.534;2024-02-15T12:14:44;15.90;99.90
48988;DHT22;34799;51.440;-2.534;2024-02-15T12:22:52;15.90;99.90
48988;DHT22;34799;51.440;-2.534;2024-02-15T12:25:20;15.70;99.90
48988;DHT22;34799;51.440;-2.534;2024-02-15T12:27:54;15.60;99.90
48988;DHT22;34799;51.440;-2.534;2024-02-15T12:30:22;15.70;99.90
48988;DHT22;34799;51.440;-2.534;2024-02-15T12:32:52;15.80;99.90
48988;DHT22;34799;51.440;-2.534;2024-02-15T12:35:22;15.80;99.90
48988;DHT22;34799;51.440;-2.534;2024-02-15T12:40:37;15.80;99.90
48988;DHT22;34799;51.440;-2.534;2024-02-15T12:43:07;16.20;99.90
48988;DHT22;34799;51.440;-2.534;2024-02-15T12:45:39;16.00;99.90
48988;DHT22;34799;51.440;-2.534;2024-02-15T12:48:08;16.00;99.90
48988;DHT22;34799;51.440;-2.534;2024-02-15T12:50:36;15.70;99.90
48988;DHT22;34799;51.440;-2.534;2024-02-15T12:53:04;16.30;99.90
48988;DHT22;34799;51.440;-2.534;2024-02-15T12:55:33;16.00;99.90
48988;DHT22;34799;51.440;-2.534;2024-02-15T12:58:03;16.10;99.90
48988;DHT22;34799;51.440;-2.534;2024-02-15T13:00:31;16.00;99.90
48988;DHT22;34799;51.440;-2.534;2024-02-15T13:03:02;16.30;99.90
48988;DHT22;34799;51.440;-2.534;2024-02-15T13:05:31;16.40;99.90
48988;DHT22;34799;51.440;-2.534;2024-02-15T13:07:59;16.40;99.90
48988;DHT22;34799;51.440;-2.534;2024-02-15T13:10:29;16.40;99.90
48988;DHT22;34799;51.440;-2.534;2024-02-15T13:15:26;16.60;99.90
48988;DHT22;34799;51.440;-2.534;2024-02-15T13:17:54;16.70;99.90
48988;DHT22;34799;51.440;-2.534;2024-02-15T13:20:23;16.40;99.90
48988;DHT22;34799;51.440;-2.534;2024-02-15T13:23:09;16.70;99.90
48988;DHT22;34799;51.440;-2.534;2024-02-15T13:25:38;16.80;99.90
48988;DHT22;34799;51.440;-2.534;2024-02-15T13:28:06;16.80;99.90
48988;DHT22;34799;51.440;-2.534;2024-02-15T13:30:36;16.50;99.90
48988;DHT22;34799;51.440;-2.534;2024-02-15T13:33:03;16.50;99.90
48988;DHT22;34799;51.440;-2.534;2024-02-15T13:35:32;16.70;99.90
48988;DHT22;34799;51.440;-2.534;2024-02-15T13:38:04;16.50;99.90
48988;DHT22;34799;51.440;-2.534;2024-02-15T13:40:31;16.60;99.90
48988;DHT22;34799;51.440;-2.534;2024-02-15T13:43:00;16.50;99.90
48988;DHT22;34799;51.440;-2.534;2024-02-15T13:45:42;16.40;99.90
48988;DHT22;34799;51.440;-2.534;2024-02-15T13:48:11;16.50;99.90
48988;DHT22;34799;51.440;-2.534;2024-02-15T13:50:44;16.20;99.90
48988;DHT22;34799;51.440;-2.534;2024-02-15T13:53:11;16.30;99.90
48988;DHT22;34799;51.440;-2.534;2024-02-15T13:55:40;16.30;99.90
48988;DHT22;34799;51.440;-2.534;2024-02-15T13:58:08;16.80;99.90
48988;DHT22;34799;51.440;-2.534;2024-02-15T14:00:40;16.30;99.90
48988;DHT22;34799;51.440;-2.534;2024-02-15T14:03:09;16.10;99.90
48988;DHT22;34799;51.440;-2.534;2024-02-15T14:05:37;16.20;99.90
48988;DHT22;34799;51.440;-2.534;2024-02-15T14:08:06;16.30;99.90
48988;DHT22;34799;51.440;-2.534;2024-02-15T14:10:36;16.10;99.90
48988;DHT22;34799;51.440;-2.534;2024-02-15T14:13:05;16.20;99.90
48988;DHT22;34799;51.440;-2.534;2024-02-15T14:15:36;16.20;99.90
48988;DHT22;34799;51.440;-2.534;2024-02-15T14:18:10;16.10;99.90
48988;DHT22;34799;51.440;-2.534;2024-02-15T14:20:40;16.10;99.90
48988;DHT22;34799;51.440;-2.534;2024-02-15T14:25:43;16.10;99.90
48988;DHT22;34799;51.440;-2.534;2024-02-15T14:28:11;15.90;99.90
48988;DHT22;34799;51.440;-2.534;2024-02-15T14:30:40;16.10;99.90
48988;DHT22;34799;51.440;-2.534;2024-02-15T14:35:57;15.90;99.90
48988;DHT22;34799;51.440;-2.534;2024-02-15T14:38:27;16.00;99.90
48988;DHT22;34799;51.440;-2.534;2024-02-15T14:40:54;15.80;99.90
48988;DHT22;34799;51.440;-2.534;2024-02-15T14:43:23;15.80;99.90
48988;DHT22;34799;51.440;-2.534;2024-02-15T14:48:21;15.80;99.90
48988;DHT22;34799;51.440;-2.534;2024-02-15T14:50:51;15.60;99.90
48988;DHT22;34799;51.440;-2.534;2024-02-15T14:53:20;16.20;99.90
48988;DHT22;34799;51.440;-2.534;2024-02-15T14:55:47;15.60;99.90
48988;DHT22;34799;51.440;-2.534;2024-02-15T14:58:15;15.50;99.90
48988;DHT22;34799;51.440;-2.534;2024-02-15T15:00:43;15.50;99.90
48988;DHT22;34799;51.440;-2.534;2024-02-15T15:03:12;15.80;99.90
48988;DHT22;34799;51.440;-2.534;2024-02-15T15:05:44;15.60;99.90
48988;DHT22;34799;51.440;-2.534;2024-02-15T15:08:30;15.70;99.90
48988;DHT22;34799;51.440;-2.534;2024-02-15T15:11:17;15.50;99.90
48988;DHT22;34799;51.440;-2.534;2024-02-15T15:14:03;15.40;99.90
48988;DHT22;34799;51.440;-2.534;2024-02-15T15:16:32;15.40;99.90
48988;DHT22;34799;51.440;-2.534;2024-02-15T15:19:00;15.20;99.90
48988;DHT22;34799;51.440;-2.534;2024-02-15T15:21:27;15.40;99.90
48988;DHT22;34799;51.440;-2.534;2024-02-15T15:26:23;15.20;99.90
48988;DHT22;34799;51.440;-2.534;2024-02-15T15:28:50;14.80;99.90
48988;DHT22;34799;51.440;-2.534;2024-02-15T15:31:18;14.80;99.90
48988;DHT22;34799;51.440;-2.534;2024-02-15T15:33:49;14.90;99.90
48988;DHT22;34799;51.440;-2.534;2024-02-15T15:38:46;15.00;99.90
48988;DHT22;34799;51.440;-2.534;2024-02-15T15:41:14;14.70;99.90
48988;DHT22;34799;51.440;-2.534;2024-02-15T15:43:42;14.60;99.90
48988;DHT22;34799;51.440;-2.534;2024-02-15T15:46:13;14.70;99.90
48988;DHT22;34799;51.440;-2.534;2024-02-15T15:51:09;14.60;99.90
48988;DHT22;34799;51.440;-2.534;2024-02-15T15:53:37;15.00;99.90
48988;DHT22;34799;51.440;-2.534;2024-02-15T15:56:06;15.00;99.90
48988;DHT22;34799;51.440;-2.534;2024-02-15T15:58:34;14.40;99.90
48988;DHT22;34799;51.440;-2.534;2024-02-15T16:01:02;14.50;99.90
48988;DHT22;34799;51.440;-2.534;2024-02-15T16:03:31;14.60;99.90
48988;DHT22;34799;51.440;-2.534;2024-02-15T16:05:59;14.10;99.90
48988;DHT22;34799;51.440;-2.534;2024-02-15T16:08:26;14.30;99.90
48988;DHT22;34799;51.440;-2.534;2024-02-15T16:10:54;14.30;99.90
48988;DHT22;34799;51.440;-2.534;2024-02-15T16:13:23;14.20;99.90
48988;DHT22;34799;51.440;-2.534;2024-02-15T16:15:53;14.30;99.90
48988;DHT22;34799;51.440;-2.534;2024-02-15T16:18:22;14.50;99.90
48988;DHT22;34799;51.440;-2.534;2024-02-15T16:20:52;14.40;99.90
48988;DHT22;34799;51.440;-2.534;2024-02-15T16:23:21;14.40;99.90
48988;DHT22;34799;51.440;-2.534;2024-02-15T16:25:49;14.40;99.90
48988;DHT22;34799;51.440;-2.534;2024-02-15T16:30:47;14.30;99.90
48988;DHT22;34799;51.440;-2.534;2024-02-15T16:33:16;11.50;99.90
48988;DHT22;34799;51.440;-2.534;2024-02-15T16:35:44;14.20;99.90
48988;DHT22;34799;51.440;-2.534;2024-02-15T16:38:12;14.50;99.90
48988;DHT22;34799;51.440;-2.534;2024-02-15T16:40:39;14.10;99.90
48988;DHT22;34799;51.440;-2.534;2024-02-15T16:43:07;14.30;99.90
48988;DHT22;34799;51.440;-2.534;2024-02-15T16:45:35;14.20;99.90
48988;DHT22;34799;51.440;-2.534;2024-02-15T16:48:03;14.40;99.90
48988;DHT22;34799;51.440;-2.534;2024-02-15T16:50:32;14.40;99.90
48988;DHT22;34799;51.440;-2.534;2024-02-15T16:57:59;14.50;99.90
48988;DHT22;34799;51.440;-2.534;2024-02-15T17:00:34;13.90;99.90
48988;DHT22;34799;51.440;-2.534;2024-02-15T17:03:02;14.00;99.90
48988;DHT22;34799;51.440;-2.534;2024-02-15T17:05:32;14.00;99.90
48988;DHT22;34799;51.440;-2.534;2024-02-15T17:08:03;14.00;99.90
48988;DHT22;34799;51.440;-2.534;2024-02-15T17:10:33;14.00;99.90
48988;DHT22;34799;51.440;-2.534;2024-02-15T17:13:00;13.70;99.90
48988;DHT22;34799;51.440;-2.534;2024-02-15T17:17:56;13.50;99.90
48988;DHT22;34799;51.440;-2.534;2024-02-15T17:20:25;13.40;99.90